Terminal Aerodrome Forecast
Issued by NWS Wichita, KS

Home | Current Version | Previous Version | Graphics & Text | Print | Product List | Glossary On
Versions: 1 2 3 4 5 6 7 8 9 10 11 12 13
000
FTUS43 KICT 022333
TAFICT
TAF
KICT 022333Z 0300/0324 19018G26KT P6SM SCT150
     FM030100 17013KT P6SM SCT150
     FM031500 18017G27KT P6SM BKN100
     FM031800 18024G33KT P6SM FEW200=

USA.gov is the U.S. government's official web portal to all federal, state and local government web resources and services.